EZY57AZ EGCC-LGRP
Flight info
| Callsign | EZY57AZ |
|---|---|
| Flight time | N/A |
| Altitude | 37000 |
| Route | DESIG L603 DOLAS DCT NAVPI DCT DOJOH DCT DODEN DCT NEGIX DCT DINKU M867 XERUM DCT BAVAX DCT RADIZ DCT DOL DCT MONID DCT NAVSU DCT EMKES DCT XELMI DCT AKIKA DCT ENFAR DCT PEP DCT TALAS UN130 MES UN139 LURUS UL995 CODIC |
| Aircraft | A319/M-SDE2E3FGIJ1RWXYZ/LB1 |
Departure
| Time | N/A |
|---|---|
| Airport | Manchester Airport (EGCC) |
Arrival
| Time | 2026-05-01 10:55 |
|---|---|
| Airport | Rhodes International Airport "Diagoras" (LGRP) |
| Time | Latitude | Longitude | Altitude | Speed | Heading |
|---|---|---|---|---|---|
| 2026-05-01 07:44 | 51.60315 | 5.66491 | 35341 ft | 438 kts | 119° |
| 2026-05-01 07:45 | 51.57244 | 5.74963 | 35351 ft | 438 kts | 121° |
| 2026-05-01 07:45 | 51.53928 | 5.83159 | 35343 ft | 439 kts | 124° |
| 2026-05-01 07:46 | 51.50299 | 5.91038 | 35350 ft | 439 kts | 127° |
| 2026-05-01 07:47 | 51.44715 | 6.02670 | 35349 ft | 439 kts | 127° |
| 2026-05-01 07:47 | 51.41044 | 6.10498 | 35345 ft | 439 kts | 126° |
| 2026-05-01 07:48 | 51.35706 | 6.21945 | 35345 ft | 439 kts | 126° |
| 2026-05-01 07:48 | 51.32036 | 6.29754 | 35347 ft | 439 kts | 126° |
| 2026-05-01 07:49 | 51.26520 | 6.41441 | 35358 ft | 439 kts | 126° |
| 2026-05-01 07:50 | 51.22835 | 6.49210 | 35356 ft | 439 kts | 127° |
| 2026-05-01 07:50 | 51.17289 | 6.60842 | 35364 ft | 439 kts | 127° |
| 2026-05-01 07:51 | 51.13594 | 6.68580 | 35350 ft | 439 kts | 127° |
| 2026-05-01 07:52 | 51.08036 | 6.80179 | 35359 ft | 439 kts | 127° |
| 2026-05-01 07:52 | 51.04329 | 6.87888 | 35358 ft | 439 kts | 127° |
| 2026-05-01 07:53 | 50.98745 | 6.99444 | 35370 ft | 439 kts | 127° |
| 2026-05-01 07:53 | 50.95020 | 7.07135 | 35373 ft | 439 kts | 127° |
| 2026-05-01 07:55 | 50.85680 | 7.26312 | 35386 ft | 439 kts | 127° |
| 2026-05-01 07:56 | 50.76337 | 7.45333 | 35385 ft | 439 kts | 127° |
| 2026-05-01 07:57 | 50.70702 | 7.56748 | 35377 ft | 439 kts | 127° |
| 2026-05-01 07:58 | 50.63165 | 7.71929 | 35375 ft | 439 kts | 127° |
| 2026-05-01 07:59 | 50.55616 | 7.87053 | 35377 ft | 439 kts | 127° |
| 2026-05-01 08:00 | 50.44258 | 8.09660 | 35374 ft | 439 kts | 127° |
| 2026-05-01 08:01 | 50.36658 | 8.24658 | 35376 ft | 439 kts | 127° |
| 2026-05-01 08:02 | 50.30942 | 8.35868 | 35377 ft | 439 kts | 127° |
| 2026-05-01 08:03 | 50.25250 | 8.47023 | 35385 ft | 439 kts | 127° |
| 2026-05-01 08:03 | 50.19523 | 8.58188 | 35394 ft | 439 kts | 127° |
| 2026-05-01 08:04 | 50.11863 | 8.73034 | 35405 ft | 439 kts | 127° |
| 2026-05-01 08:05 | 50.06107 | 8.84124 | 35412 ft | 439 kts | 128° |
| 2026-05-01 08:06 | 50.00342 | 8.95194 | 35406 ft | 439 kts | 128° |
| 2026-05-01 08:07 | 49.92655 | 9.09911 | 35404 ft | 438 kts | 127° |
| 2026-05-01 08:08 | 49.86876 | 9.20889 | 35403 ft | 438 kts | 127° |
| 2026-05-01 08:09 | 49.79159 | 9.35484 | 35393 ft | 438 kts | 127° |
| 2026-05-01 08:09 | 49.75297 | 9.42771 | 35394 ft | 438 kts | 127° |
| 2026-05-01 08:10 | 49.67554 | 9.57307 | 35394 ft | 438 kts | 128° |
| 2026-05-01 08:11 | 49.59803 | 9.71785 | 35385 ft | 438 kts | 128° |
| 2026-05-01 08:12 | 49.54000 | 9.82571 | 35385 ft | 438 kts | 128° |
| 2026-05-01 08:13 | 49.48162 | 9.93366 | 35385 ft | 437 kts | 128° |
| 2026-05-01 08:13 | 49.41872 | 10.03568 | 35385 ft | 439 kts | 134° |
| 2026-05-01 08:14 | 49.37433 | 10.10029 | 35384 ft | 440 kts | 134° |
| 2026-05-01 08:14 | 49.32982 | 10.16466 | 35385 ft | 440 kts | 134° |
| 2026-05-01 08:15 | 49.26326 | 10.26151 | 35394 ft | 440 kts | 134° |
| 2026-05-01 08:16 | 49.21887 | 10.32603 | 35395 ft | 440 kts | 134° |
| 2026-05-01 08:16 | 49.17443 | 10.39047 | 35394 ft | 440 kts | 134° |
| 2026-05-01 08:17 | 49.12997 | 10.45472 | 35403 ft | 440 kts | 134° |
| 2026-05-01 08:17 | 49.08542 | 10.51898 | 35403 ft | 441 kts | 134° |
| 2026-05-01 08:18 | 49.04085 | 10.58319 | 35404 ft | 441 kts | 134° |
| 2026-05-01 08:19 | 48.95172 | 10.71065 | 35413 ft | 441 kts | 134° |
| 2026-05-01 08:19 | 48.90700 | 10.77449 | 35407 ft | 441 kts | 134° |
| 2026-05-01 08:20 | 48.86223 | 10.83815 | 35404 ft | 441 kts | 134° |
| 2026-05-01 08:20 | 48.81739 | 10.90175 | 35403 ft | 441 kts | 134° |
| 2026-05-01 08:21 | 48.77259 | 10.96526 | 35404 ft | 441 kts | 134° |
| 2026-05-01 08:21 | 48.72769 | 11.02861 | 35403 ft | 441 kts | 134° |
| 2026-05-01 08:22 | 48.68269 | 11.09188 | 35403 ft | 441 kts | 134° |
| 2026-05-01 08:22 | 48.63769 | 11.15508 | 35403 ft | 441 kts | 134° |
| 2026-05-01 08:23 | 48.59269 | 11.21817 | 35403 ft | 441 kts | 134° |
| 2026-05-01 08:23 | 48.54761 | 11.28107 | 35403 ft | 441 kts | 134° |
| 2026-05-01 08:24 | 48.50256 | 11.34391 | 35403 ft | 441 kts | 134° |
| 2026-05-01 08:24 | 48.45746 | 11.40667 | 35403 ft | 441 kts | 134° |
| 2026-05-01 08:25 | 48.41243 | 11.46907 | 35401 ft | 441 kts | 134° |
| 2026-05-01 08:25 | 48.36720 | 11.53160 | 35403 ft | 441 kts | 134° |
| 2026-05-01 08:26 | 48.32198 | 11.59402 | 35403 ft | 441 kts | 134° |
| 2026-05-01 08:26 | 48.28433 | 11.64580 | 35403 ft | 441 kts | 134° |
| 2026-05-01 08:27 | 48.23906 | 11.70801 | 35404 ft | 441 kts | 134° |
| 2026-05-01 08:27 | 48.19384 | 11.77033 | 35403 ft | 441 kts | 134° |
| 2026-05-01 08:28 | 48.14861 | 11.83256 | 35403 ft | 441 kts | 134° |
| 2026-05-01 08:28 | 48.10331 | 11.89454 | 35403 ft | 441 kts | 134° |
| 2026-05-01 08:29 | 48.05796 | 11.95646 | 35403 ft | 441 kts | 134° |
| 2026-05-01 08:29 | 48.01259 | 12.01834 | 35412 ft | 441 kts | 134° |
| 2026-05-01 08:30 | 47.96719 | 12.08008 | 35405 ft | 441 kts | 134° |
| 2026-05-01 08:30 | 47.92173 | 12.14171 | 35404 ft | 442 kts | 134° |
| 2026-05-01 08:31 | 47.87618 | 12.20329 | 35402 ft | 442 kts | 134° |
| 2026-05-01 08:31 | 47.83065 | 12.26472 | 35404 ft | 442 kts | 134° |
| 2026-05-01 08:32 | 47.78507 | 12.32600 | 35406 ft | 442 kts | 134° |
| 2026-05-01 08:32 | 47.73952 | 12.38722 | 35411 ft | 441 kts | 134° |
| 2026-05-01 08:33 | 47.69421 | 12.44791 | 35412 ft | 442 kts | 134° |
| 2026-05-01 08:33 | 47.64855 | 12.50887 | 35412 ft | 442 kts | 134° |
| 2026-05-01 08:34 | 47.60330 | 12.57055 | 35413 ft | 441 kts | 131° |
| 2026-05-01 08:34 | 47.56048 | 12.63556 | 35412 ft | 440 kts | 129° |
| 2026-05-01 08:35 | 47.51835 | 12.70141 | 35412 ft | 440 kts | 130° |
| 2026-05-01 08:35 | 47.47574 | 12.76652 | 35412 ft | 441 kts | 130° |
| 2026-05-01 08:36 | 47.43261 | 12.83097 | 35648 ft | 441 kts | 130° |
| 2026-05-01 08:36 | 47.41099 | 12.86317 | 35986 ft | 441 kts | 130° |
| 2026-05-01 08:36 | 47.38944 | 12.89534 | 36297 ft | 441 kts | 131° |
| 2026-05-01 08:36 | 47.36787 | 12.92755 | 36582 ft | 441 kts | 131° |
| 2026-05-01 08:37 | 47.34630 | 12.95978 | 36859 ft | 441 kts | 131° |
| 2026-05-01 08:37 | 47.32473 | 12.99200 | 37114 ft | 441 kts | 131° |
| 2026-05-01 08:37 | 47.30316 | 13.02415 | 37327 ft | 442 kts | 131° |
| 2026-05-01 08:38 | 47.26205 | 13.08529 | 37410 ft | 437 kts | 131° |
| 2026-05-01 08:38 | 47.21933 | 13.14860 | 37414 ft | 435 kts | 131° |
| 2026-05-01 08:39 | 47.17692 | 13.21134 | 37416 ft | 434 kts | 131° |
| 2026-05-01 08:39 | 47.13465 | 13.27377 | 37421 ft | 433 kts | 131° |
| 2026-05-01 08:40 | 47.07101 | 13.36743 | 37420 ft | 432 kts | 131° |
| 2026-05-01 08:40 | 47.02862 | 13.42966 | 37423 ft | 431 kts | 131° |
| 2026-05-01 08:41 | 46.98618 | 13.49186 | 37424 ft | 432 kts | 131° |
| 2026-05-01 08:41 | 46.94370 | 13.55394 | 37423 ft | 432 kts | 131° |
| 2026-05-01 08:42 | 46.90107 | 13.61597 | 37427 ft | 432 kts | 131° |
| 2026-05-01 08:42 | 46.85843 | 13.67791 | 37429 ft | 432 kts | 131° |
| 2026-05-01 08:43 | 46.81581 | 13.73977 | 37427 ft | 432 kts | 132° |
| 2026-05-01 08:43 | 46.77311 | 13.80151 | 37424 ft | 433 kts | 132° |
| 2026-05-01 08:44 | 46.73034 | 13.86319 | 37422 ft | 432 kts | 132° |
| 2026-05-01 08:44 | 46.68757 | 13.92480 | 37423 ft | 433 kts | 132° |
| 2026-05-01 08:45 | 46.64472 | 13.98627 | 37422 ft | 433 kts | 132° |
| 2026-05-01 08:45 | 46.60174 | 14.04783 | 37422 ft | 434 kts | 132° |
| 2026-05-01 08:46 | 46.55901 | 14.10899 | 37419 ft | 434 kts | 132° |
| 2026-05-01 08:46 | 46.51598 | 14.17048 | 37421 ft | 434 kts | 132° |
| 2026-05-01 08:47 | 46.47285 | 14.23191 | 37424 ft | 434 kts | 132° |
| 2026-05-01 08:47 | 46.42963 | 14.29318 | 37422 ft | 435 kts | 132° |
| 2026-05-01 08:48 | 46.38635 | 14.35443 | 37421 ft | 435 kts | 133° |
| 2026-05-01 08:48 | 46.34300 | 14.41563 | 37423 ft | 435 kts | 133° |
| 2026-05-01 08:49 | 46.29974 | 14.47674 | 37417 ft | 435 kts | 133° |
| 2026-05-01 08:49 | 46.25643 | 14.53774 | 37417 ft | 434 kts | 133° |
| 2026-05-01 08:50 | 46.21303 | 14.59854 | 37413 ft | 435 kts | 133° |
| 2026-05-01 08:50 | 46.16962 | 14.65929 | 37413 ft | 435 kts | 133° |
| 2026-05-01 08:51 | 46.12618 | 14.71992 | 37410 ft | 435 kts | 133° |
| 2026-05-01 08:51 | 46.08295 | 14.78017 | 37410 ft | 435 kts | 133° |
| 2026-05-01 08:52 | 46.03933 | 14.84141 | 37413 ft | 435 kts | 133° |
| 2026-05-01 08:52 | 45.99628 | 14.90183 | 37411 ft | 435 kts | 133° |
| 2026-05-01 08:53 | 45.95299 | 14.96248 | 37401 ft | 435 kts | 133° |
| 2026-05-01 08:53 | 45.90955 | 15.02315 | 37389 ft | 436 kts | 133° |
| 2026-05-01 08:54 | 45.86601 | 15.08389 | 37391 ft | 437 kts | 133° |
| 2026-05-01 08:54 | 45.82235 | 15.14470 | 37391 ft | 438 kts | 133° |
| 2026-05-01 08:55 | 45.77869 | 15.20535 | 37393 ft | 438 kts | 133° |
| 2026-05-01 08:55 | 45.73484 | 15.26599 | 37397 ft | 438 kts | 133° |
| 2026-05-01 08:56 | 45.69094 | 15.32655 | 37404 ft | 438 kts | 134° |
| 2026-05-01 08:56 | 45.64704 | 15.38702 | 37407 ft | 438 kts | 134° |
| 2026-05-01 08:57 | 45.60336 | 15.44701 | 37406 ft | 438 kts | 134° |
| 2026-05-01 08:57 | 45.55951 | 15.50723 | 37407 ft | 438 kts | 134° |
| 2026-05-01 08:58 | 45.51551 | 15.56738 | 37406 ft | 437 kts | 134° |
| 2026-05-01 08:58 | 45.47157 | 15.62733 | 37400 ft | 438 kts | 134° |
| 2026-05-01 08:59 | 45.42756 | 15.68722 | 37404 ft | 437 kts | 134° |
| 2026-05-01 08:59 | 45.38350 | 15.74700 | 37399 ft | 438 kts | 134° |
| 2026-05-01 09:00 | 45.33942 | 15.80679 | 37398 ft | 438 kts | 134° |
| 2026-05-01 09:00 | 45.29527 | 15.86664 | 37400 ft | 438 kts | 134° |
| 2026-05-01 09:01 | 45.25108 | 15.92625 | 37397 ft | 438 kts | 134° |
| 2026-05-01 09:01 | 45.20683 | 15.98582 | 37396 ft | 439 kts | 134° |
| 2026-05-01 09:02 | 45.16254 | 16.04539 | 37397 ft | 439 kts | 134° |
| 2026-05-01 09:02 | 45.11820 | 16.10485 | 37399 ft | 439 kts | 135° |
| 2026-05-01 09:03 | 45.07376 | 16.16421 | 37396 ft | 439 kts | 135° |
| 2026-05-01 09:03 | 45.02927 | 16.22354 | 37394 ft | 440 kts | 135° |
| 2026-05-01 09:04 | 44.98495 | 16.28241 | 37394 ft | 440 kts | 135° |
| 2026-05-01 09:04 | 44.94083 | 16.34228 | 37392 ft | 440 kts | 133° |
| 2026-05-01 09:05 | 44.89806 | 16.40402 | 37395 ft | 440 kts | 132° |
| 2026-05-01 09:05 | 44.85559 | 16.46595 | 37388 ft | 440 kts | 133° |
| 2026-05-01 09:06 | 44.81274 | 16.52752 | 37381 ft | 440 kts | 133° |
| 2026-05-01 09:06 | 44.76959 | 16.58877 | 37382 ft | 441 kts | 133° |
| 2026-05-01 09:07 | 44.72639 | 16.64993 | 37381 ft | 441 kts | 133° |
| 2026-05-01 09:07 | 44.68322 | 16.71106 | 37386 ft | 441 kts | 133° |
| 2026-05-01 09:08 | 44.64002 | 16.77224 | 37383 ft | 441 kts | 133° |
| 2026-05-01 09:08 | 44.59664 | 16.83349 | 37386 ft | 442 kts | 133° |
| 2026-05-01 09:09 | 44.55326 | 16.89450 | 37389 ft | 442 kts | 133° |
| 2026-05-01 09:09 | 44.50922 | 16.95450 | 37387 ft | 442 kts | 135° |
| 2026-05-01 09:10 | 44.46427 | 17.01315 | 37383 ft | 441 kts | 136° |
| 2026-05-01 09:10 | 44.41933 | 17.07173 | 37380 ft | 441 kts | 135° |
| 2026-05-01 09:11 | 44.37458 | 17.13043 | 37374 ft | 441 kts | 135° |
| 2026-05-01 09:11 | 44.32985 | 17.18921 | 37372 ft | 441 kts | 135° |
| 2026-05-01 09:12 | 44.28515 | 17.24783 | 37371 ft | 441 kts | 135° |
| 2026-05-01 09:12 | 44.24034 | 17.30643 | 37371 ft | 442 kts | 135° |
| 2026-05-01 09:13 | 44.19542 | 17.36497 | 37374 ft | 441 kts | 135° |
| 2026-05-01 09:13 | 44.15079 | 17.42293 | 37374 ft | 441 kts | 135° |
| 2026-05-01 09:14 | 44.10589 | 17.48115 | 37373 ft | 441 kts | 135° |
| 2026-05-01 09:14 | 44.06104 | 17.53920 | 37359 ft | 440 kts | 135° |
| 2026-05-01 09:15 | 44.01613 | 17.59723 | 37348 ft | 440 kts | 135° |
| 2026-05-01 09:15 | 43.97125 | 17.65510 | 37341 ft | 440 kts | 136° |
| 2026-05-01 09:16 | 43.93357 | 17.70358 | 37336 ft | 441 kts | 136° |
| 2026-05-01 09:17 | 43.86604 | 17.79025 | 37331 ft | 442 kts | 136° |
| 2026-05-01 09:17 | 43.79891 | 17.87667 | 37328 ft | 441 kts | 135° |
| 2026-05-01 09:18 | 43.73331 | 17.96593 | 37324 ft | 441 kts | 134° |
| 2026-05-01 09:19 | 43.66771 | 18.05525 | 37319 ft | 441 kts | 134° |
| 2026-05-01 09:20 | 43.60168 | 18.14383 | 37314 ft | 442 kts | 134° |
| 2026-05-01 09:21 | 43.51518 | 18.26425 | 37308 ft | 442 kts | 133° |
| 2026-05-01 09:21 | 43.45073 | 18.35499 | 37301 ft | 442 kts | 134° |
| 2026-05-01 09:22 | 43.36424 | 18.47500 | 37285 ft | 442 kts | 134° |
| 2026-05-01 09:23 | 43.29938 | 18.56500 | 37280 ft | 442 kts | 134° |
| 2026-05-01 09:24 | 43.23463 | 18.65437 | 37275 ft | 442 kts | 134° |
| 2026-05-01 09:25 | 43.14773 | 18.77388 | 37262 ft | 443 kts | 134° |
| 2026-05-01 09:26 | 43.08245 | 18.86340 | 37253 ft | 443 kts | 135° |
| 2026-05-01 09:26 | 43.01699 | 18.95275 | 37246 ft | 443 kts | 135° |
| 2026-05-01 09:27 | 42.95151 | 19.04194 | 37232 ft | 443 kts | 135° |
| 2026-05-01 09:28 | 42.90779 | 19.10128 | 37231 ft | 443 kts | 135° |
| 2026-05-01 09:28 | 42.86403 | 19.16062 | 37224 ft | 443 kts | 135° |
| 2026-05-01 09:29 | 42.79836 | 19.24952 | 37222 ft | 444 kts | 135° |
| 2026-05-01 09:30 | 42.73248 | 19.33818 | 37217 ft | 444 kts | 135° |
| 2026-05-01 09:30 | 42.66658 | 19.42678 | 37214 ft | 444 kts | 135° |
| 2026-05-01 09:31 | 42.62256 | 19.48580 | 37211 ft | 445 kts | 136° |
| 2026-05-01 09:32 | 42.55643 | 19.57412 | 37207 ft | 445 kts | 136° |
| 2026-05-01 09:32 | 42.48927 | 19.66088 | 37198 ft | 444 kts | 138° |
| 2026-05-01 09:33 | 42.44321 | 19.71679 | 37195 ft | 444 kts | 139° |
| 2026-05-01 09:34 | 42.37416 | 19.80073 | 37197 ft | 445 kts | 139° |
| 2026-05-01 09:34 | 42.30567 | 19.88481 | 37197 ft | 445 kts | 139° |
| 2026-05-01 09:35 | 42.23681 | 19.96919 | 37202 ft | 446 kts | 139° |
| 2026-05-01 09:36 | 42.19081 | 20.02522 | 37203 ft | 446 kts | 139° |
| 2026-05-01 09:36 | 42.14472 | 20.08114 | 37202 ft | 446 kts | 139° |
| 2026-05-01 09:37 | 42.09865 | 20.13699 | 37199 ft | 445 kts | 139° |
| 2026-05-01 09:37 | 42.02958 | 20.22059 | 37198 ft | 445 kts | 139° |
| 2026-05-01 09:38 | 41.96047 | 20.30416 | 37200 ft | 445 kts | 139° |
| 2026-05-01 09:39 | 41.89132 | 20.38747 | 37196 ft | 445 kts | 139° |
| 2026-05-01 09:39 | 41.84510 | 20.44287 | 37196 ft | 446 kts | 139° |
| 2026-05-01 09:40 | 41.77628 | 20.52676 | 37195 ft | 447 kts | 133° |
| 2026-05-01 09:41 | 41.74056 | 20.59477 | 37180 ft | 447 kts | 122° |
| 2026-05-01 09:41 | 41.69123 | 20.70094 | 37184 ft | 448 kts | 123° |
| 2026-05-01 09:42 | 41.65811 | 20.77161 | 37177 ft | 449 kts | 123° |
| 2026-05-01 09:43 | 41.59170 | 20.91299 | 37197 ft | 449 kts | 123° |
| 2026-05-01 09:43 | 41.55851 | 20.98351 | 37199 ft | 449 kts | 123° |
| 2026-05-01 09:44 | 41.50859 | 21.08928 | 37203 ft | 449 kts | 123° |
| 2026-05-01 09:45 | 41.47525 | 21.15976 | 37206 ft | 449 kts | 123° |
| 2026-05-01 09:45 | 41.42514 | 21.26534 | 37211 ft | 449 kts | 123° |
| 2026-05-01 09:46 | 41.39184 | 21.33522 | 37215 ft | 450 kts | 123° |
| 2026-05-01 09:46 | 41.35825 | 21.40544 | 37217 ft | 450 kts | 123° |
| 2026-05-01 09:47 | 41.32417 | 21.47519 | 37221 ft | 449 kts | 126° |
| 2026-05-01 09:47 | 41.28735 | 21.54226 | 37220 ft | 449 kts | 128° |
| 2026-05-01 09:48 | 41.24943 | 21.60820 | 37220 ft | 449 kts | 128° |
| 2026-05-01 09:48 | 41.21188 | 21.67453 | 37223 ft | 449 kts | 128° |
| 2026-05-01 09:49 | 41.17473 | 21.74125 | 37224 ft | 449 kts | 128° |
| 2026-05-01 09:49 | 41.13752 | 21.80797 | 37224 ft | 450 kts | 128° |
| 2026-05-01 09:50 | 41.10024 | 21.87458 | 37226 ft | 450 kts | 128° |
| 2026-05-01 09:50 | 41.06292 | 21.94108 | 37225 ft | 450 kts | 128° |
| 2026-05-01 09:51 | 41.02533 | 22.00740 | 37230 ft | 450 kts | 128° |
| 2026-05-01 09:51 | 40.98759 | 22.07349 | 37234 ft | 450 kts | 129° |
| 2026-05-01 09:52 | 40.94944 | 22.14008 | 37250 ft | 460 kts | 129° |
| 2026-05-01 09:52 | 40.91051 | 22.20819 | 37248 ft | 466 kts | 128° |
| 2026-05-01 09:53 | 40.87138 | 22.27668 | 37240 ft | 467 kts | 129° |
| 2026-05-01 09:53 | 40.83214 | 22.34507 | 37241 ft | 467 kts | 129° |
| 2026-05-01 09:54 | 40.79297 | 22.41298 | 37237 ft | 468 kts | 129° |
| 2026-05-01 09:54 | 40.75352 | 22.48127 | 37238 ft | 468 kts | 129° |
| 2026-05-01 09:55 | 40.71406 | 22.54951 | 37245 ft | 468 kts | 129° |
| 2026-05-01 09:55 | 40.67458 | 22.61768 | 37247 ft | 468 kts | 129° |
| 2026-05-01 09:56 | 40.63504 | 22.68590 | 37246 ft | 468 kts | 129° |
| 2026-05-01 09:56 | 40.59543 | 22.75394 | 37248 ft | 468 kts | 129° |
| 2026-05-01 09:57 | 40.55578 | 22.82196 | 37250 ft | 468 kts | 129° |
| 2026-05-01 09:57 | 40.51610 | 22.88988 | 37252 ft | 468 kts | 129° |
| 2026-05-01 09:58 | 40.47637 | 22.95764 | 37255 ft | 468 kts | 129° |
| 2026-05-01 09:58 | 40.43408 | 23.02240 | 37257 ft | 466 kts | 136° |
| 2026-05-01 09:59 | 40.38936 | 23.08412 | 37256 ft | 467 kts | 135° |
| 2026-05-01 09:59 | 40.35231 | 23.13547 | 37257 ft | 467 kts | 135° |
| 2026-05-01 10:00 | 40.30758 | 23.19728 | 37259 ft | 467 kts | 136° |
| 2026-05-01 10:00 | 40.26280 | 23.25887 | 37259 ft | 467 kts | 136° |
| 2026-05-01 10:01 | 40.21798 | 23.32034 | 37256 ft | 467 kts | 136° |
| 2026-05-01 10:01 | 40.17317 | 23.38185 | 37252 ft | 467 kts | 136° |
| 2026-05-01 10:02 | 40.12833 | 23.44324 | 37252 ft | 467 kts | 136° |
| 2026-05-01 10:02 | 40.08337 | 23.50453 | 37251 ft | 467 kts | 136° |
| 2026-05-01 10:03 | 40.03851 | 23.56567 | 37245 ft | 466 kts | 136° |
| 2026-05-01 10:03 | 39.99359 | 23.62668 | 37233 ft | 466 kts | 136° |
| 2026-05-01 10:04 | 39.94860 | 23.68769 | 37229 ft | 467 kts | 136° |
| 2026-05-01 10:04 | 39.90359 | 23.74870 | 37227 ft | 467 kts | 136° |
| 2026-05-01 10:05 | 39.85854 | 23.80959 | 37225 ft | 467 kts | 136° |
| 2026-05-01 10:05 | 39.81341 | 23.87047 | 37222 ft | 467 kts | 136° |
| 2026-05-01 10:06 | 39.76826 | 23.93119 | 37220 ft | 467 kts | 136° |
| 2026-05-01 10:06 | 39.72311 | 23.99179 | 37217 ft | 467 kts | 137° |
| 2026-05-01 10:07 | 39.67789 | 24.05234 | 37218 ft | 467 kts | 137° |
| 2026-05-01 10:07 | 39.63260 | 24.11285 | 37216 ft | 467 kts | 137° |
| 2026-05-01 10:08 | 39.56141 | 24.19804 | 37207 ft | 462 kts | 148° |
| 2026-05-01 10:09 | 39.50879 | 24.24578 | 37204 ft | 462 kts | 148° |
| 2026-05-01 10:09 | 39.45610 | 24.29349 | 37205 ft | 462 kts | 148° |
| 2026-05-01 10:10 | 39.40333 | 24.34110 | 37203 ft | 463 kts | 148° |
| 2026-05-01 10:10 | 39.32411 | 24.41250 | 37205 ft | 463 kts | 148° |
| 2026-05-01 10:11 | 39.27136 | 24.46011 | 37205 ft | 463 kts | 148° |
| 2026-05-01 10:11 | 39.21857 | 24.50759 | 37203 ft | 463 kts | 148° |
| 2026-05-01 10:12 | 39.16567 | 24.55506 | 37200 ft | 463 kts | 148° |
| 2026-05-01 10:13 | 39.08633 | 24.62601 | 37199 ft | 463 kts | 148° |
| 2026-05-01 10:13 | 39.03365 | 24.67298 | 37192 ft | 464 kts | 149° |
| 2026-05-01 10:14 | 38.95400 | 24.74388 | 37193 ft | 465 kts | 149° |
| 2026-05-01 10:14 | 38.90086 | 24.79115 | 37186 ft | 465 kts | 149° |
| 2026-05-01 10:15 | 38.84766 | 24.83829 | 37183 ft | 465 kts | 149° |
| 2026-05-01 10:15 | 38.79440 | 24.88539 | 37184 ft | 465 kts | 149° |
| 2026-05-01 10:16 | 38.74114 | 24.93238 | 37184 ft | 465 kts | 149° |
| 2026-05-01 10:17 | 38.66126 | 25.00275 | 37177 ft | 465 kts | 149° |
| 2026-05-01 10:17 | 38.58135 | 25.07310 | 37172 ft | 465 kts | 149° |
| 2026-05-01 10:18 | 38.50133 | 25.14317 | 37163 ft | 465 kts | 149° |
| 2026-05-01 10:19 | 38.44795 | 25.18986 | 37156 ft | 465 kts | 149° |
| 2026-05-01 10:19 | 38.39452 | 25.23651 | 37153 ft | 464 kts | 149° |
| 2026-05-01 10:20 | 38.34223 | 25.28214 | 37129 ft | 449 kts | 149° |
| 2026-05-01 10:20 | 38.31649 | 25.30453 | 37126 ft | 447 kts | 149° |
| 2026-05-01 10:20 | 38.26506 | 25.34908 | 37121 ft | 447 kts | 149° |
| 2026-05-01 10:21 | 38.18807 | 25.41591 | 37112 ft | 447 kts | 149° |
| 2026-05-01 10:22 | 38.11128 | 25.48233 | 37100 ft | 447 kts | 149° |
| 2026-05-01 10:23 | 38.03423 | 25.54887 | 37095 ft | 446 kts | 149° |
| 2026-05-01 10:23 | 37.95712 | 25.61514 | 37100 ft | 447 kts | 149° |
| 2026-05-01 10:24 | 37.85410 | 25.70352 | 37101 ft | 447 kts | 149° |
| 2026-05-01 10:25 | 37.75110 | 25.79160 | 37094 ft | 447 kts | 149° |
| 2026-05-01 10:26 | 37.69959 | 25.83548 | 37094 ft | 446 kts | 149° |
| 2026-05-01 10:27 | 37.59686 | 25.92283 | 37097 ft | 447 kts | 150° |
| 2026-05-01 10:28 | 37.51951 | 25.98848 | 37090 ft | 447 kts | 150° |
| 2026-05-01 10:28 | 37.44207 | 26.05394 | 37086 ft | 447 kts | 149° |
| 2026-05-01 10:29 | 37.36468 | 26.11938 | 37083 ft | 447 kts | 149° |
| 2026-05-01 10:30 | 37.31298 | 26.16293 | 36832 ft | 447 kts | 150° |
| 2026-05-01 10:30 | 37.26136 | 26.20633 | 36337 ft | 446 kts | 150° |
| 2026-05-01 10:31 | 37.20973 | 26.24959 | 35834 ft | 447 kts | 150° |
| 2026-05-01 10:31 | 37.15808 | 26.29293 | 35026 ft | 444 kts | 149° |
| 2026-05-01 10:32 | 37.10685 | 26.33580 | 33957 ft | 441 kts | 150° |
| 2026-05-01 10:32 | 37.08135 | 26.35703 | 33425 ft | 439 kts | 150° |
| 2026-05-01 10:32 | 37.03067 | 26.39921 | 32376 ft | 436 kts | 150° |
| 2026-05-01 10:33 | 36.98049 | 26.44107 | 31343 ft | 431 kts | 150° |
| 2026-05-01 10:33 | 36.93090 | 26.48242 | 30351 ft | 426 kts | 150° |
| 2026-05-01 10:34 | 36.90757 | 26.50509 | 29884 ft | 426 kts | 139° |
| 2026-05-01 10:34 | 36.88792 | 26.53277 | 29431 ft | 427 kts | 128° |
| 2026-05-01 10:34 | 36.87283 | 26.56465 | 28967 ft | 426 kts | 116° |
| 2026-05-01 10:35 | 36.84974 | 26.63190 | 28080 ft | 421 kts | 114° |
| 2026-05-01 10:35 | 36.83822 | 26.66536 | 27634 ft | 418 kts | 115° |
| 2026-05-01 10:35 | 36.82675 | 26.69863 | 27193 ft | 416 kts | 115° |
| 2026-05-01 10:35 | 36.81532 | 26.73171 | 26735 ft | 414 kts | 115° |
| 2026-05-01 10:36 | 36.79272 | 26.79740 | 25827 ft | 410 kts | 115° |
| 2026-05-01 10:36 | 36.78150 | 26.82999 | 25354 ft | 408 kts | 115° |
| 2026-05-01 10:36 | 36.77032 | 26.86237 | 24872 ft | 406 kts | 115° |
| 2026-05-01 10:37 | 36.75919 | 26.89458 | 24389 ft | 403 kts | 115° |
| 2026-05-01 10:37 | 36.73711 | 26.95846 | 23415 ft | 399 kts | 115° |
| 2026-05-01 10:37 | 36.72613 | 26.99012 | 22932 ft | 396 kts | 115° |
| 2026-05-01 10:38 | 36.71522 | 27.02153 | 22452 ft | 394 kts | 115° |
| 2026-05-01 10:38 | 36.70435 | 27.05275 | 21982 ft | 392 kts | 115° |
| 2026-05-01 10:38 | 36.69354 | 27.08379 | 21519 ft | 389 kts | 115° |
| 2026-05-01 10:38 | 36.68282 | 27.11457 | 21058 ft | 386 kts | 115° |
| 2026-05-01 10:39 | 36.67215 | 27.14518 | 20607 ft | 383 kts | 115° |
| 2026-05-01 10:39 | 36.66157 | 27.17545 | 20159 ft | 380 kts | 115° |
| 2026-05-01 10:39 | 36.65104 | 27.20543 | 19717 ft | 376 kts | 115° |
| 2026-05-01 10:39 | 36.64058 | 27.23517 | 19277 ft | 373 kts | 115° |
| 2026-05-01 10:40 | 36.63022 | 27.26466 | 18843 ft | 370 kts | 115° |
| 2026-05-01 10:40 | 36.61996 | 27.29391 | 18409 ft | 367 kts | 115° |
| 2026-05-01 10:40 | 36.60979 | 27.32291 | 17981 ft | 364 kts | 115° |
| 2026-05-01 10:40 | 36.59976 | 27.35168 | 17564 ft | 361 kts | 115° |
| 2026-05-01 10:41 | 36.58980 | 27.38022 | 17148 ft | 358 kts | 115° |
| 2026-05-01 10:41 | 36.57988 | 27.40849 | 16746 ft | 355 kts | 115° |
| 2026-05-01 10:41 | 36.56032 | 27.46405 | 15946 ft | 350 kts | 115° |
| 2026-05-01 10:42 | 36.55056 | 27.49169 | 15550 ft | 348 kts | 115° |
| 2026-05-01 10:42 | 36.54086 | 27.51915 | 15162 ft | 345 kts | 115° |
| 2026-05-01 10:42 | 36.53121 | 27.54637 | 14773 ft | 343 kts | 115° |
| 2026-05-01 10:42 | 36.52159 | 27.57343 | 14380 ft | 341 kts | 115° |
| 2026-05-01 10:43 | 36.51205 | 27.60025 | 13996 ft | 338 kts | 115° |
| 2026-05-01 10:43 | 36.50258 | 27.62691 | 13612 ft | 336 kts | 115° |
| 2026-05-01 10:43 | 36.49319 | 27.65336 | 13239 ft | 333 kts | 115° |
| 2026-05-01 10:43 | 36.48385 | 27.67962 | 12842 ft | 331 kts | 115° |
| 2026-05-01 10:44 | 36.47458 | 27.70566 | 12457 ft | 328 kts | 115° |
| 2026-05-01 10:44 | 36.46574 | 27.73173 | 12067 ft | 327 kts | 109° |
| 2026-05-01 10:44 | 36.46003 | 27.75895 | 11668 ft | 325 kts | 104° |
| 2026-05-01 10:44 | 36.45471 | 27.78618 | 11279 ft | 323 kts | 104° |
| 2026-05-01 10:45 | 36.44941 | 27.81322 | 10879 ft | 321 kts | 104° |
| 2026-05-01 10:45 | 36.44488 | 27.84026 | 10475 ft | 319 kts | 94° |
| 2026-05-01 10:45 | 36.44710 | 27.86743 | 10082 ft | 316 kts | 77° |
| 2026-05-01 10:45 | 36.45042 | 27.88502 | 9816 ft | 315 kts | 76° |
| 2026-05-01 10:46 | 36.45565 | 27.91133 | 9416 ft | 313 kts | 75° |
| 2026-05-01 10:46 | 36.46089 | 27.93748 | 9018 ft | 310 kts | 75° |
| 2026-05-01 10:46 | 36.46607 | 27.96336 | 8614 ft | 308 kts | 75° |
| 2026-05-01 10:46 | 36.47121 | 27.98904 | 8213 ft | 306 kts | 75° |
| 2026-05-01 10:47 | 36.47633 | 28.01453 | 7811 ft | 302 kts | 76° |
| 2026-05-01 10:47 | 36.48141 | 28.03975 | 7406 ft | 299 kts | 76° |
| 2026-05-01 10:47 | 36.48644 | 28.06466 | 7012 ft | 296 kts | 76° |
| 2026-05-01 10:47 | 36.49144 | 28.08930 | 6610 ft | 293 kts | 75° |
| 2026-05-01 10:48 | 36.49639 | 28.11374 | 6207 ft | 290 kts | 76° |
| 2026-05-01 10:48 | 36.50126 | 28.13771 | 5993 ft | 280 kts | 75° |
| 2026-05-01 10:48 | 36.50586 | 28.16037 | 5999 ft | 261 kts | 75° |
| 2026-05-01 10:48 | 36.51015 | 28.18151 | 6000 ft | 244 kts | 76° |
| 2026-05-01 10:49 | 36.51416 | 28.20126 | 6002 ft | 227 kts | 75° |
| 2026-05-01 10:49 | 36.51789 | 28.21968 | 5894 ft | 217 kts | 76° |
| 2026-05-01 10:49 | 36.52153 | 28.23764 | 5764 ft | 208 kts | 76° |
| 2026-05-01 10:49 | 36.52501 | 28.25482 | 5525 ft | 204 kts | 75° |
| 2026-05-01 10:50 | 36.52661 | 28.27217 | 5211 ft | 203 kts | 99° |
| 2026-05-01 10:50 | 36.52018 | 28.28725 | 4868 ft | 201 kts | 137° |
| 2026-05-01 10:50 | 36.50763 | 28.29438 | 4431 ft | 202 kts | 175° |
| 2026-05-01 10:50 | 36.49347 | 28.29437 | 3985 ft | 205 kts | 185° |
| 2026-05-01 10:51 | 36.47922 | 28.29227 | 3533 ft | 208 kts | 198° |
| 2026-05-01 10:51 | 36.46686 | 28.28356 | 3093 ft | 202 kts | 224° |
| 2026-05-01 10:51 | 36.45901 | 28.26984 | 2807 ft | 192 kts | 247° |
| 2026-05-01 10:51 | 36.45445 | 28.25450 | 2554 ft | 188 kts | 251° |
| 2026-05-01 10:52 | 36.45012 | 28.23961 | 2315 ft | 185 kts | 251° |
| 2026-05-01 10:52 | 36.44578 | 28.22470 | 2065 ft | 181 kts | 251° |
| 2026-05-01 10:52 | 36.44175 | 28.21087 | 1836 ft | 159 kts | 251° |
| 2026-05-01 10:52 | 36.43814 | 28.19850 | 1630 ft | 148 kts | 251° |
| 2026-05-01 10:53 | 36.43471 | 28.18673 | 1440 ft | 143 kts | 251° |
| 2026-05-01 10:53 | 36.43140 | 28.17538 | 1254 ft | 136 kts | 251° |
| 2026-05-01 10:53 | 36.42829 | 28.16470 | 1078 ft | 129 kts | 251° |
| 2026-05-01 10:53 | 36.42530 | 28.15435 | 856 ft | 125 kts | 251° |
| 2026-05-01 10:54 | 36.42257 | 28.14429 | 632 ft | 121 kts | 248° |
| 2026-05-01 10:54 | 36.41943 | 28.13399 | 599 ft | 129 kts | 250° |
| 2026-05-01 10:54 | 36.41623 | 28.12344 | 420 ft | 132 kts | 250° |
| 2026-05-01 10:54 | 36.41315 | 28.11285 | 240 ft | 131 kts | 252° |
| 2026-05-01 10:55 | 36.41013 | 28.10233 | 57 ft | 127 kts | 251° |
| 2026-05-01 10:55 | 36.40747 | 28.09326 | 31 ft | 91 kts | 250° |
| 2026-05-01 10:55 | 36.40588 | 28.08778 | 29 ft | 48 kts | 250° |
| 2026-05-01 10:55 | 36.40489 | 28.08638 | 28 ft | 15 kts | 130° |
| 2026-05-01 10:56 | 36.40447 | 28.08738 | 28 ft | 13 kts | 119° |
| 2026-05-01 10:56 | 36.40403 | 28.08840 | 28 ft | 14 kts | 102° |
| 2026-05-01 10:56 | 36.40398 | 28.08964 | 28 ft | 15 kts | 84° |
| 2026-05-01 10:56 | 36.40424 | 28.09090 | 28 ft | 15 kts | 71° |
| 2026-05-01 10:57 | 36.40451 | 28.09185 | 28 ft | 6 kts | 79° |
| 2026-05-01 10:57 | 36.40423 | 28.09218 | 28 ft | 6 kts | 152° |
| 2026-05-01 10:57 | 36.40395 | 28.09231 | 28 ft | 3 kts | 161° |
| 2026-05-01 10:57 | 36.40387 | 28.09234 | 28 ft | 0 kts | 161° |